Thunder radar more information blitzortung!


Radar de pluja more information rain snow radar


Visita la nostra xarxa de llocs de meteo:

Template documentation
and downloads

And another site



No particular awareness of the weather is required.    There are no Weather-warnings

Pagina Historial Weather Underground text

Diari Resum Novembre 6, 2017 Unitats:  Imperial    Mètric   Tant
« Previous Dia
SegĂźent Dia »
Diari Setmana Mensual Anual Personalitzada
  Maxima: Minima: Media:
Temperatura: 60.4 °F 38.5 °F 51.6 °F
Punt de rosada: 35.4 °F 12.6 °F 21.9 °F
Humitat: 62 % 22 % 32 %
Wind Speed: 13.8 mph 0 mph 4.3 mph
RĂ fegues de vent: 13.8 mph - -
Vent:- - WSW
Pression baro: 30.1 in 29.9 in -
Precipitacions: 0 in    
Historical Graphs
 
 
Dades de taula per Novembre 6, 2017
Temps Temperatura Punt de rosada Pression baro Vent Wind Speed RĂ fegues de vent Humitat Rainfall Rate (Hourly)
00:00 45.5 °F 33.3 °F 30 in West 3 mph 5 mph 62 % 0 in
00:03 49.6 °F 35.4 °F 30 in WSW 5.8 mph 5.8 mph 58 % 0 in
00:10 45.7 °F 33.1 °F 30 in WSW 3 mph 4 mph 61 % 0 in
00:20 45.5 °F 32.7 °F 30 in WSW 3 mph 4 mph 61 % 0 in
00:30 45.3 °F 32.2 °F 30 in West 3 mph 6 mph 60 % 0 in
00:40 45.3 °F 32.2 °F 30.1 in West 3 mph 3 mph 60 % 0 in
00:50 45 °F 31.5 °F 30.1 in WSW 3 mph 4 mph 59 % 0 in
01:00 44.6 °F 31.6 °F 30 in WSW 5 mph 5 mph 60 % 0 in
01:10 44.4 °F 31.5 °F 30.1 in WSW 3 mph 6 mph 60 % 0 in
01:20 44.8 °F 31.3 °F 30.1 in West 2 mph 4 mph 59 % 0 in
01:30 45 °F 31.1 °F 30.1 in West 3 mph 5 mph 58 % 0 in
01:40 45.1 °F 30.7 °F 30.1 in WSW 3 mph 5 mph 57 % 0 in
01:50 45.3 °F 30.9 °F 30.1 in WSW 1 mph 3 mph 57 % 0 in
02:00 45.7 °F 30.9 °F 30.1 in WSW 2 mph 4 mph 56 % 0 in
02:10 46 °F 30.7 °F 30.1 in WSW 1 mph 3 mph 55 % 0 in
02:20 46.6 °F 31.3 °F 30.1 in WSW 3 mph 4 mph 55 % 0 in
02:30 47.3 °F 31.5 °F 30.1 in WSW 6 mph 6 mph 54 % 0 in
02:45 48.2 °F 31.5 °F 30.1 in WSW 2 mph 5 mph 52 % 0 in
02:55 48.9 °F 32 °F 30.1 in SW 2 mph 3 mph 52 % 0 in
03:05 49.8 °F 32.9 °F 30.1 in SW 3 mph 4 mph 52 % 0 in
03:15 50.4 °F 33.4 °F 30.1 in SW 2 mph 3 mph 52 % 0 in
03:25 51.1 °F 33.6 °F 30.1 in SW 3 mph 5 mph 51 % 0 in
03:35 51.4 °F 33.4 °F 30.1 in SW 6 mph 7 mph 50 % 0 in
03:45 52 °F 33.4 °F 30.1 in WSW 7 mph 7 mph 49 % 0 in
03:55 52.3 °F 33.3 °F 30.1 in WSW 2 mph 8 mph 48 % 0 in
04:05 52.9 °F 33.6 °F 30.1 in WSW 3 mph 5 mph 48 % 0 in
04:15 53.8 °F 34 °F 30.1 in WSW 3 mph 4 mph 47 % 0 in
04:25 54 °F 34.2 °F 30.1 in SW 5 mph 6 mph 47 % 0 in
04:35 55.2 °F 34.9 °F 30.1 in WSW 2 mph 6 mph 46 % 0 in
10:38 55.4 °F 34.3 °F 30.1 in NW 2.3 mph 2.4 mph 45 % 0 in
10:39 55.4 °F 34.3 °F 30.1 in West 5.8 mph 5.8 mph 45 % 0 in
10:44 55.6 °F 35.1 °F 30.1 in West 5.8 mph 5.8 mph 46 % 0 in
10:49 55.8 °F 35.2 °F 30.1 in SW 5.8 mph 5.8 mph 46 % 0 in
10:54 55.9 °F 34.9 °F 30.1 in WNW 4.6 mph 4.6 mph 45 % 0 in
10:59 55.8 °F 34.2 °F 30.1 in NNW 5.6 mph 5.6 mph 44 % 0 in
11:05 56.3 °F 34.5 °F 30.1 in SW 4 mph 4 mph 44 % 0 in
11:10 56.3 °F 35.2 °F 30.1 in West 4.6 mph 4.6 mph 45 % 0 in
11:15 56.3 °F 34.5 °F 30.1 in West 5.8 mph 5.9 mph 44 % 0 in
11:20 56.7 °F 35.1 °F 30.1 in West 4.6 mph 4.6 mph 44 % 0 in
11:25 57 °F 34.7 °F 30 in SW 3.5 mph 3.5 mph 43 % 0 in
11:30 57 °F 35.2 °F 30 in SW 5.9 mph 5.9 mph 44 % 0 in
11:35 57.4 °F 35.1 °F 30 in WNW 5.8 mph 5.8 mph 43 % 0 in
11:40 57.6 °F 35.2 °F 30.1 in WSW 4.9 mph 4.9 mph 43 % 0 in
11:45 57.6 °F 34.5 °F 30.1 in WSW 9.2 mph 9.2 mph 42 % 0 in
11:46 57.7 °F 34.9 °F 30.1 in West 5.8 mph 5.8 mph 42 % 0 in
11:51 58.1 °F 35.1 °F 30 in NW 6.9 mph 6.9 mph 42 % 0 in
11:56 57.7 °F 34.9 °F 30 in West 4.9 mph 4.9 mph 42 % 0 in
12:01 58.6 °F 35.1 °F 30 in WSW 3.5 mph 3.5 mph 41 % 0 in
12:06 59 °F 34.7 °F 30 in West 5.8 mph 5.8 mph 40 % 0 in
12:11 59 °F 34.7 °F 30 in WNW 8.1 mph 8.1 mph 40 % 0 in
12:16 59.4 °F 33.6 °F 30 in ENE 4.6 mph 4.6 mph 38 % 0 in
12:21 59.4 °F 33.1 °F 30 in West 5.8 mph 5.8 mph 37 % 0 in
12:26 59.9 °F 32.9 °F 30 in WNW 4.6 mph 4.6 mph 36 % 0 in
12:31 60.4 °F 33.3 °F 30 in WNW 5.9 mph 5.9 mph 36 % 0 in
12:36 59.9 °F 32.9 °F 30 in WNW 5.8 mph 5.8 mph 36 % 0 in
12:41 59.7 °F 31.3 °F 30 in SE 3.6 mph 3.6 mph 34 % 0 in
12:46 59.7 °F 31.3 °F 30 in NNW 5.8 mph 5.8 mph 34 % 0 in
12:51 59.9 °F 31.5 °F 30 in SW 8.1 mph 8.1 mph 34 % 0 in
12:56 60.3 °F 31.8 °F 30 in NW 4.6 mph 4.6 mph 34 % 0 in
13:01 59.9 °F 30.7 °F 30 in NW 5.8 mph 5.8 mph 33 % 0 in
13:06 60.3 °F 30.9 °F 30 in SSW 5.8 mph 5.8 mph 33 % 0 in
13:11 60.4 °F 31.3 °F 30 in West 9.2 mph 9.2 mph 33 % 0 in
13:16 60.1 °F 30 °F 30 in NNE 8.1 mph 8.1 mph 32 % 0 in
13:21 60.1 °F 29.3 °F 30 in NW 5.8 mph 5.8 mph 31 % 0 in
13:26 60.1 °F 29.3 °F 30 in NW 9.2 mph 9.2 mph 31 % 0 in
13:31 60.1 °F 30 °F 30 in NW 5.8 mph 5.8 mph 32 % 0 in
13:36 59.7 °F 28.2 °F 30 in SW 12.7 mph 12.7 mph 30 % 0 in
13:41 59.7 °F 28.9 °F 30 in WNW 3.5 mph 3.5 mph 31 % 0 in
13:46 59.7 °F 28.2 °F 30 in NW 9.2 mph 9.2 mph 30 % 0 in
13:51 59.7 °F 28.9 °F 30 in NW 5.9 mph 5.9 mph 31 % 0 in
13:56 59.7 °F 28.2 °F 30 in WNW 8.1 mph 8.1 mph 30 % 0 in
14:01 59.9 °F 28.4 °F 30 in WSW 4.6 mph 4.6 mph 30 % 0 in
14:06 60.1 °F 29.3 °F 30 in NW 4.9 mph 4.9 mph 31 % 0 in
14:11 59.9 °F 28.4 °F 30 in NNW 5.8 mph 5.8 mph 30 % 0 in
14:16 60.1 °F 28.6 °F 30 in NW 7.1 mph 7.1 mph 30 % 0 in
14:21 60.3 °F 28.8 °F 30 in WNW 4.6 mph 4.6 mph 30 % 0 in
14:26 60.4 °F 28.8 °F 30 in West 6.9 mph 6.9 mph 30 % 0 in
14:31 60.4 °F 28.8 °F 30 in WNW 8.1 mph 8.1 mph 30 % 0 in
14:36 60.3 °F 27 °F 30 in West 13.8 mph 13.8 mph 28 % 0 in
14:41 60.1 °F 26.8 °F 30 in WSW 8.1 mph 8.1 mph 28 % 0 in
14:46 60.3 °F 27 °F 30 in West 5.9 mph 5.9 mph 28 % 0 in
14:51 60.4 °F 28 °F 30 in NNW 4.6 mph 4.6 mph 29 % 0 in
14:56 60.3 °F 27 °F 30 in West 9.2 mph 9.2 mph 28 % 0 in
15:01 60.3 °F 26.1 °F 30 in South 10.4 mph 10.4 mph 27 % 0 in
15:06 60.1 °F 26.1 °F 30 in WSW 5.8 mph 5.8 mph 27 % 0 in
15:11 60.1 °F 26.1 °F 30 in SW 6 mph 6 mph 27 % 0 in
15:16 60.1 °F 26.1 °F 30 in SSE 4.6 mph 4.6 mph 27 % 0 in
15:21 60.1 °F 25 °F 30 in NW 5.8 mph 5.8 mph 26 % 0 in
15:26 59.9 °F 25 °F 30 in SW 9.2 mph 9.2 mph 26 % 0 in
15:31 59.7 °F 24.6 °F 30 in WNW 3.1 mph 3.1 mph 26 % 0 in
15:36 59.5 °F 24.6 °F 30 in East 5.8 mph 5.8 mph 26 % 0 in
15:41 59.9 °F 25.9 °F 30 in West 4.6 mph 4.6 mph 27 % 0 in
15:46 59.7 °F 24.6 °F 30 in NW 9.2 mph 9.2 mph 26 % 0 in
15:51 59.9 °F 25.9 °F 30 in WNW 6 mph 6 mph 27 % 0 in
15:56 59.7 °F 24.6 °F 30 in SSW 8.1 mph 8.1 mph 26 % 0 in
16:01 59.5 °F 23.5 °F 30 in WNW 5.8 mph 5.8 mph 25 % 0 in
16:06 59.5 °F 24.6 °F 30 in WNW 8.7 mph 8.7 mph 26 % 0 in
16:11 59 °F 23.2 °F 30 in SW 5.8 mph 5.8 mph 25 % 0 in
16:16 58.8 °F 22.1 °F 30 in West 7.1 mph 7.1 mph 24 % 0 in
16:22 58.5 °F 20.7 °F 29.9 in West 6.9 mph 6.9 mph 23 % 0 in
16:27 58.3 °F 21.6 °F 29.9 in West 5.8 mph 5.8 mph 24 % 0 in
16:32 58.1 °F 21.4 °F 29.9 in West 11.5 mph 11.5 mph 24 % 0 in
16:37 57.9 °F 21.4 °F 29.9 in WNW 8.1 mph 8.1 mph 24 % 0 in
16:42 57.7 °F 21 °F 29.9 in SW 5.8 mph 5.8 mph 24 % 0 in
16:47 57.6 °F 19.9 °F 29.9 in South 4.6 mph 4.6 mph 23 % 0 in
16:52 57.4 °F 19.8 °F 29.9 in WSW 9.2 mph 9.2 mph 23 % 0 in
16:57 57.2 °F 19.8 °F 29.9 in West 5.9 mph 5.9 mph 23 % 0 in
17:02 57 °F 19.6 °F 29.9 in WNW 9.2 mph 9.2 mph 23 % 0 in
17:07 56.7 °F 18.1 °F 30 in WNW 11.5 mph 11.5 mph 22 % 0 in
17:12 56.5 °F 18 °F 30 in West 10.4 mph 10.4 mph 22 % 0 in
17:17 55.9 °F 17.6 °F 30 in NW 4.6 mph 4.6 mph 22 % 0 in
17:22 55.6 °F 17.2 °F 29.9 in SW 9.2 mph 9.2 mph 22 % 0 in
17:27 55.4 °F 17.1 °F 29.9 in WSW 4.6 mph 4.6 mph 22 % 0 in
17:32 55 °F 16.9 °F 29.9 in West 4.6 mph 4.6 mph 22 % 0 in
17:37 54.9 °F 16.7 °F 30 in WSW 8.1 mph 8.1 mph 22 % 0 in
17:42 54.7 °F 16.5 °F 30 in ESE 6.9 mph 6.9 mph 22 % 0 in
17:47 54.5 °F 16.3 °F 30 in West 6 mph 6 mph 22 % 0 in
17:52 54.3 °F 16.2 °F 30 in WSW 9.2 mph 9.2 mph 22 % 0 in
17:57 54.3 °F 16.2 °F 30 in SSW 4.6 mph 4.6 mph 22 % 0 in
18:02 54 °F 16 °F 30 in West 6.9 mph 6.9 mph 22 % 0 in
18:07 53.8 °F 15.8 °F 30 in WSW 8.7 mph 8.7 mph 22 % 0 in
18:12 53.6 °F 15.6 °F 30 in SW 6.9 mph 6.9 mph 22 % 0 in
18:15 44.6 °F 14.4 °F 30 in WSW 1 mph 2 mph 29 % 0 in
18:17 53.4 °F 15.4 °F 30 in West 4.6 mph 4.6 mph 22 % 0 in
18:22 53.2 °F 15.3 °F 30 in ENE 4.6 mph 4.6 mph 22 % 0 in
18:23 53.2 °F 15.3 °F 30 in WSW 3.5 mph 3.5 mph 22 % 0 in
18:25 44.2 °F 13.8 °F 30 in West 1 mph 2 mph 29 % 0 in
18:28 53.1 °F 15.3 °F 30 in West 6.4 mph 6.4 mph 22 % 0 in
18:33 52.9 °F 15.1 °F 30 in NW 5.8 mph 5.8 mph 22 % 0 in
18:35 44.1 °F 13.8 °F 30 in WNW 1 mph 1 mph 29 % 0 in
18:38 52.9 °F 15.1 °F 30 in North 2.9 mph 2.9 mph 22 % 0 in
18:43 52.7 °F 14.9 °F 30 in West 3.5 mph 3.5 mph 22 % 0 in
18:44 52.5 °F 14.7 °F 30 in West 3.5 mph 3.6 mph 22 % 0 in
18:45 43.9 °F 14.4 °F 30 in West 2 mph 2 mph 30 % 0 in
18:49 52.3 °F 15.6 °F 30 in NNW 3.5 mph 3.5 mph 23 % 0 in
18:54 52.2 °F 15.4 °F 30 in West 4.6 mph 4.6 mph 23 % 0 in
18:55 43.9 °F 14.4 °F 30 in Calm   2 mph 30 % 0 in
18:59 52 °F 15.3 °F 30 in SW 4.6 mph 4.6 mph 23 % 0 in
19:04 51.6 °F 15.1 °F 30 in WSW 4.6 mph 4.6 mph 23 % 0 in
19:05 43.7 °F 14.2 °F 30 in West 1 mph 2 mph 30 % 0 in
19:09 51.6 °F 15.1 °F 30 in West 3.1 mph 3.1 mph 23 % 0 in
19:14 51.3 °F 14.7 °F 30 in NE 2.3 mph 2.3 mph 23 % 0 in
19:15 43.3 °F 13.8 °F 30 in WSW 2 mph 3 mph 30 % 0 in
19:19 51.4 °F 14.7 °F 30 in West 3.5 mph 3.5 mph 23 % 0 in
19:24 51.3 °F 14.7 °F 30 in NNE 2.6 mph 2.6 mph 23 % 0 in
19:25 43 °F 13.6 °F 30 in Calm   2 mph 30 % 0 in
19:29 51.1 °F 14.5 °F 30 in SW 4.6 mph 4.6 mph 23 % 0 in
19:34 51.3 °F 14.7 °F 30 in ESE 6.9 mph 6.9 mph 23 % 0 in
19:35 43 °F 13.6 °F 30 in West 2 mph 2 mph 30 % 0 in
19:39 51.1 °F 14.5 °F 30 in WNW 4.6 mph 4.6 mph 23 % 0 in
19:44 51.1 °F 14.5 °F 30 in NW 3.5 mph 3.5 mph 23 % 0 in
19:45 42.6 °F 14 °F 30 in WSW 1 mph 3 mph 31 % 0 in
19:49 50.9 °F 15.3 °F 30 in NW 4.6 mph 4.6 mph 24 % 0 in
19:54 50.5 °F 15.1 °F 30 in WSW 3.5 mph 3.5 mph 24 % 0 in
19:55 41.7 °F 13.3 °F 30 in WSW 1 mph 3 mph 31 % 0 in
19:59 50.4 °F 14.9 °F 30 in WSW 3.5 mph 3.5 mph 24 % 0 in
20:04 49.8 °F 14.4 °F 30 in WNW 2.4 mph 2.4 mph 24 % 0 in
20:05 49.8 °F 14.4 °F 30 in WNW 2.3 mph 2.3 mph 24 % 0 in
20:10 49.6 °F 14.4 °F 30 in West 2.6 mph 2.6 mph 24 % 0 in
20:15 49.5 °F 14.2 °F 30 in West 3.5 mph 3.5 mph 24 % 0 in
20:20 49.3 °F 14 °F 30 in WSW 3.5 mph 3.5 mph 24 % 0 in
20:25 48.9 °F 14.5 °F 30 in SW 4.6 mph 4.6 mph 25 % 0 in
20:30 48.6 °F 14.4 °F 30 in SSW 1.2 mph 1.4 mph 25 % 0 in
20:35 48.4 °F 14.2 °F 30 in SSW 2.3 mph 2.3 mph 25 % 0 in
20:40 48.2 °F 14 °F 30 in SE 1.6 mph   25 % 0 in
20:45 48 °F 13.8 °F 30 in NE 3.5 mph 3.5 mph 25 % 0 in
20:50 48.2 °F 14 °F 30 in ENE 3.1 mph 3.1 mph 25 % 0 in
20:55 48.2 °F 14 °F 30 in SW 2.3 mph 2.3 mph 25 % 0 in
21:00 47.8 °F 13.6 °F 30 in East 2.3 mph 2.3 mph 25 % 0 in
21:05 47.8 °F 13.6 °F 30 in ENE 2.3 mph 2.3 mph 25 % 0 in
21:10 47.7 °F 13.5 °F 30 in NW 5.8 mph 5.8 mph 25 % 0 in
21:15 47.7 °F 13.5 °F 30 in ENE 2.3 mph 2.3 mph 25 % 0 in
21:20 47.5 °F 13.5 °F 30 in ENE 1.4 mph 1.4 mph 25 % 0 in
21:25 47.5 °F 13.5 °F 30 in ENE 2.3 mph   25 % 0 in
21:26 47.5 °F 13.5 °F 30 in ESE 2.6 mph   25 % 0 in
21:31 47.3 °F 13.3 °F 30 in ENE 2.4 mph 2.4 mph 25 % 0 in
21:35 41 °F 13.5 °F 30.1 in Calm   1 mph 32 % 0 in
21:36 46.9 °F 13.8 °F 30 in Calm     26 % 0 in
21:41 46.8 °F 13.6 °F 30 in WSW 1.2 mph 1.2 mph 26 % 0 in
21:45 40.8 °F 13.3 °F 30 in NW 2 mph 2 mph 32 % 0 in
21:46 46.8 °F 13.6 °F 30 in SW 2.3 mph 2.3 mph 26 % 0 in
21:51 46.6 °F 13.5 °F 30 in SW 2.3 mph 2.3 mph 26 % 0 in
21:55 40.6 °F 12.9 °F 30.1 in North 1 mph 2 mph 32 % 0 in
21:56 46.2 °F 13.3 °F 30 in SSW 2.3 mph 2.3 mph 26 % 0 in
22:01 46 °F 12.9 °F 30 in SW 2.3 mph 2.3 mph 26 % 0 in
22:05 40.6 °F 12.9 °F 30.1 in North 1 mph 2 mph 32 % 0 in
22:06 46 °F 13.8 °F 30 in WNW 2.3 mph 2.3 mph 27 % 0 in
22:11 46 °F 13.8 °F 30 in South 2.3 mph 2.3 mph 27 % 0 in
22:15 40.1 °F 12.6 °F 30 in NNE 2 mph 3 mph 32 % 0 in
22:16 45.9 °F 13.6 °F 30 in West 1.2 mph   27 % 0 in
22:21 45.7 °F 13.6 °F 30 in WSW 1.4 mph 1.4 mph 27 % 0 in
22:25 39.6 °F 12.7 °F 30.1 in Calm   1 mph 33 % 0 in
22:26 45.3 °F 13.3 °F 30 in West 2.6 mph 2.6 mph 27 % 0 in
22:31 45.1 °F 13.1 °F 30 in WSW 2.6 mph 2.6 mph 27 % 0 in
22:35 39.4 °F 12.6 °F 30.1 in Calm     33 % 0 in
22:36 45.3 °F 13.3 °F 30 in West 2.4 mph 2.4 mph 27 % 0 in
22:41 45.5 °F 13.5 °F 30 in SSW 2.3 mph 2.3 mph 27 % 0 in
22:45 39.4 °F 12.6 °F 30.1 in NW 1 mph 2 mph 33 % 0 in
22:46 45.5 °F 13.5 °F 30 in West 2.4 mph 2.4 mph 27 % 0 in
22:51 45.7 °F 14.4 °F 30 in WSW 3.5 mph 3.5 mph 28 % 0 in
22:55 39.2 °F 13.1 °F 30.1 in Calm   2 mph 34 % 0 in
22:56 45.1 °F 13.8 °F 30 in SSE 3.1 mph 3.1 mph 28 % 0 in
23:01 45.5 °F 14.2 °F 30 in WNW 3.5 mph 3.5 mph 28 % 0 in
23:05 38.7 °F 12.7 °F 30.1 in West 1 mph 1 mph 34 % 0 in
23:06 45.5 °F 14.2 °F 30 in Calm     28 % 0 in
23:11 45 °F 13.8 °F 30 in WSW 3.5 mph 3.5 mph 28 % 0 in
23:15 38.5 °F 12.6 °F 30.1 in West 1 mph 3 mph 34 % 0 in
23:16 44.2 °F 13.1 °F 30 in South 1.2 mph 1.2 mph 28 % 0 in
23:18 44.4 °F 13.3 °F 30 in South 1.2 mph 1.2 mph 28 % 0 in
23:23 44.6 °F 13.5 °F 30 in WSW 2.3 mph 2.6 mph 28 % 0 in
23:25 38.7 °F 12.7 °F 30.1 in WNW 1 mph 2 mph 34 % 0 in
23:28 44.4 °F 13.3 °F 30 in West 4.6 mph 4.6 mph 28 % 0 in
23:33 44.6 °F 14.4 °F 30 in WSW 3.3 mph 3.3 mph 29 % 0 in
23:35 38.8 °F 12.7 °F 30.1 in NNW 1 mph 1 mph 34 % 0 in
23:38 44.4 °F 14.2 °F 30 in West 2.3 mph 2.3 mph 29 % 0 in
23:43 44.4 °F 14.2 °F 30 in SE 1.2 mph 1.2 mph 29 % 0 in
23:45 38.7 °F 12.7 °F 30 in NW 1 mph 2 mph 34 % 0 in
23:48 44.6 °F 14.4 °F 30 in WNW 2.6 mph 2.6 mph 29 % 0 in
23:53 44.6 °F 14.4 °F 30 in SW 1.2 mph 1.2 mph 29 % 0 in
23:55 38.5 °F 13.3 °F 30.1 in WNW 1 mph 1 mph 35 % 0 in
23:58 44.6 °F 14.4 °F 30 in WNW 2.3 mph 2.3 mph 29 % 0 in
Meteo Sesrovires
Elogis d' Weather Underground - 3.75 mb

Guio original per  Jim McMurry - jmcmurry@mwt.net Adaptat per a la plantilla per  Wim van der Kuil - Leuven-Template.eu

Trobareu la nostra informacio del temps tambe a:

Weather Underground

AWEKAS